Time;durP1;ratioP1;P1;durP2;ratioP2;P2;SDS_P1;SDS_P2;PMS_P1;PMS_P2;Temp;Humidity;BMP_temperature;BMP_pressure;BME280_temperature;BME280_humidity;BME280_pressure;Samples;Min_cycle;Max_cycle;Signal;HPM_P1;HPM_P2
2022/12/23 00:02:24;;;;;;;2.63;1.10;;;;;13.30;97838.00;;;;16734788;28;20249;-49
2022/12/23 00:10:28;;;;;;;2.73;1.00;;;;;13.20;97846.00;;;;16727754;28;20590;-47
2022/12/23 00:18:30;;;;;;;1.43;0.67;;;;;13.40;97854.00;;;;16721640;28;20694;-49
2022/12/23 00:26:34;;;;;;;2.57;1.70;;;;;13.40;97850.00;;;;16737293;28;20232;-48
2022/12/23 00:34:37;;;;;;;2.50;2.20;;;;;13.40;97832.00;;;;16733791;28;20299;-50
2022/12/23 00:42:55;;;;;;;2.77;2.10;;;;;13.20;97845.00;;;;16742679;28;20230;-49
2022/12/23 00:50:58;;;;;;;2.40;1.40;;;;;13.40;97861.00;;;;16742102;28;20711;-48
2022/12/23 00:59:02;;;;;;;2.97;1.87;;;;;13.40;97873.00;;;;16742809;28;20249;-49
2022/12/23 01:07:05;;;;;;;1.07;0.97;;;;;13.60;97869.00;;;;16732313;28;20221;-48
2022/12/23 01:15:10;;;;;;;1.53;1.00;;;;;13.70;97895.00;;;;16725883;28;20217;-48
2022/12/23 01:23:12;;;;;;;0.60;0.60;;;;;13.80;97884.00;;;;16740634;28;20237;-48
2022/12/23 01:31:16;;;;;;;0.90;0.63;;;;;14.00;97893.00;;;;16745771;28;20453;-48
2022/12/23 01:39:18;;;;;;;2.40;0.70;;;;;13.90;97901.00;;;;16740588;28;20720;-50
2022/12/23 01:47:27;;;;;;;0.60;0.60;;;;;13.80;97900.00;;;;16753683;28;20223;-50
2022/12/23 01:55:32;;;;;;;1.87;0.80;;;;;13.90;97913.00;;;;16753042;28;20227;-50
2022/12/23 02:03:42;;;;;;;1.23;0.70;;;;;14.00;97919.00;;;;16749888;28;20231;-48
2022/12/23 02:12:12;;;;;;;2.60;1.43;;;;;14.10;97931.00;;;;16692649;28;20214;-50
2022/12/23 02:20:36;;;;;;;0.97;0.70;;;;;14.30;97951.00;;;;16682755;28;20224;-52
2022/12/23 02:29:09;;;;;;;2.20;0.60;;;;;14.20;97957.00;;;;16691034;28;20225;-50
2022/12/23 02:37:18;;;;;;;1.03;0.87;;;;;14.30;97968.00;;;;16692915;28;20957;-45
2022/12/23 02:45:25;;;;;;;1.40;0.70;;;;;15.00;97965.00;;;;16700616;22;20226;-68
2022/12/23 02:53:34;;;;;;;1.17;0.57;;;;;14.60;97981.00;;;;16688890;28;20225;-69
2022/12/23 03:01:36;;;;;;;1.00;0.47;;;;;14.60;97992.00;;;;16687803;28;20222;-69
2022/12/23 03:09:45;;;;;;;1.83;0.90;;;;;14.90;97998.00;;;;16680123;28;20230;-69
2022/12/23 03:17:56;;;;;;;3.00;0.80;;;;;14.60;98005.00;;;;16695401;28;20272;-69
2022/12/23 03:26:03;;;;;;;1.27;1.03;;;;;14.80;98008.00;;;;16689568;28;20240;-69
2022/12/23 03:34:10;;;;;;;1.57;1.03;;;;;14.90;98014.00;;;;16685488;28;20228;-69
2022/12/23 03:42:20;;;;;;;1.73;1.10;;;;;15.10;98021.00;;;;16681770;28;20779;-69
2022/12/23 03:50:23;;;;;;;14.10;8.40;;;;;14.40;98040.00;;;;16690575;28;20756;-69
2022/12/23 03:58:34;;;;;;;9.30;6.00;;;;;14.60;98048.00;;;;16690981;28;20712;-69
2022/12/23 04:06:41;;;;;;;1.83;1.00;;;;;14.70;98045.00;;;;16683532;28;20713;-69
2022/12/23 04:14:48;;;;;;;2.40;1.47;;;;;15.00;98049.00;;;;16680275;28;20294;-69
2022/12/23 04:22:51;;;;;;;1.30;0.77;;;;;14.50;98051.00;;;;16684058;28;20242;-69
2022/12/23 04:30:55;;;;;;;1.70;1.27;;;;;14.40;98059.00;;;;16707755;22;20225;-48
2022/12/23 04:38:57;;;;;;;2.93;2.20;;;;;14.20;98067.00;;;;16708517;28;20320;-48
2022/12/23 04:47:01;;;;;;;3.70;1.87;;;;;13.80;98065.00;;;;16708311;28;20229;-48
2022/12/23 04:55:03;;;;;;;6.10;1.80;;;;;13.30;98089.00;;;;16714016;28;20225;-48
2022/12/23 05:03:07;;;;;;;2.33;1.40;;;;;13.40;98108.00;;;;16707131;28;20217;-48
2022/12/23 05:11:10;;;;;;;2.23;1.00;;;;;13.20;98118.00;;;;16712850;28;20198;-49
2022/12/23 05:19:13;;;;;;;2.53;1.13;;;;;13.90;98109.00;;;;16703153;28;20297;-48
2022/12/23 05:27:16;;;;;;;1.00;0.93;;;;;13.30;98110.00;;;;16707836;28;20233;-48
2022/12/23 05:35:20;;;;;;;1.90;1.73;;;;;13.10;98122.00;;;;16703090;28;20593;-48
2022/12/23 05:43:22;;;;;;;2.80;2.27;;;;;12.90;98108.00;;;;16701891;28;20222;-48
2022/12/23 05:51:26;;;;;;;1.70;1.60;;;;;12.90;98128.00;;;;16709615;28;20201;-47
2022/12/23 05:59:28;;;;;;;1.40;1.30;;;;;13.30;98132.00;;;;16702188;28;20222;-49
2022/12/23 06:07:32;;;;;;;12.70;9.53;;;;;13.10;98122.00;;;;16705139;28;20286;-48
2022/12/23 06:15:34;;;;;;;3.83;2.43;;;;;13.50;98127.00;;;;16698412;28;20232;-48
2022/12/23 06:23:38;;;;;;;2.33;2.20;;;;;14.00;98131.00;;;;16706405;28;20231;-48
2022/12/23 06:31:41;;;;;;;4.43;4.03;;;;;13.90;98136.00;;;;16709753;28;20217;-54
2022/12/23 06:39:44;;;;;;;3.00;2.67;;;;;13.10;98148.00;;;;16711040;28;20201;-48
2022/12/23 06:47:47;;;;;;;5.27;4.80;;;;;13.00;98143.00;;;;16710245;28;21163;-48
2022/12/23 06:55:58;;;;;;;5.60;4.50;;;;;13.00;98150.00;;;;16697219;28;20221;-48
2022/12/23 07:04:01;;;;;;;5.07;4.57;;;;;12.80;98168.00;;;;16704308;28;20243;-47
2022/12/23 07:12:06;;;;;;;5.00;4.60;;;;;12.80;98159.00;;;;16712424;28;20225;-47
2022/12/23 07:20:09;;;;;;;7.27;6.00;;;;;12.40;98168.00;;;;16709807;28;20194;-47
2022/12/23 07:28:13;;;;;;;4.30;3.90;;;;;12.80;98166.00;;;;16714363;28;20296;-48
2022/12/23 07:36:15;;;;;;;8.97;5.17;;;;;12.90;98169.00;;;;16686351;28;20221;-48
2022/12/23 07:44:19;;;;;;;4.50;4.10;;;;;13.10;98176.00;;;;16702526;28;20228;-48
2022/12/23 07:52:21;;;;;;;6.43;4.17;;;;;13.30;98167.00;;;;16719740;28;20301;-49
2022/12/23 08:00:25;;;;;;;23.17;20.93;;;;;13.20;98170.00;;;;16707027;28;20280;-47
2022/12/23 08:08:28;;;;;;;6.63;5.73;;;;;13.20;98183.00;;;;16711434;28;20228;-48
2022/12/23 08:16:32;;;;;;;8.43;7.63;;;;;13.40;98197.00;;;;16692816;28;20407;-48
2022/12/23 08:24:34;;;;;;;9.50;7.73;;;;;13.20;98207.00;;;;16711364;28;20294;-48
2022/12/23 08:32:38;;;;;;;9.07;7.93;;;;;13.20;98207.00;;;;16682612;28;20227;-48
2022/12/23 08:40:40;;;;;;;7.77;7.03;;;;;13.50;98200.00;;;;16692049;28;20208;-48
2022/12/23 08:48:44;;;;;;;10.37;9.23;;;;;13.40;98185.00;;;;16672437;28;20346;-49
2022/12/23 08:56:46;;;;;;;6.60;6.00;;;;;13.50;98179.00;;;;16671008;28;20589;-48
2022/12/23 09:04:50;;;;;;;6.67;5.67;;;;;13.60;98173.00;;;;16700684;28;20224;-47
2022/12/23 09:12:53;;;;;;;7.20;6.50;;;;;13.50;98188.00;;;;16689008;28;20232;-48
2022/12/23 09:20:59;;;;;;;7.97;7.23;;;;;13.60;98196.00;;;;16697334;28;20214;-49
2022/12/23 09:29:02;;;;;;;6.87;6.27;;;;;14.60;98175.00;;;;16695023;28;20233;-49
2022/12/23 09:37:05;;;;;;;13.57;9.40;;;;;14.20;98166.00;;;;16692981;28;20233;-48
2022/12/23 09:45:19;;;;;;;8.83;7.00;;;;;14.70;98166.00;;;;16689867;28;20731;-49
2022/12/23 09:53:27;;;;;;;11.87;10.07;;;;;14.90;98148.00;;;;16698563;28;20218;-48
2022/12/23 10:01:32;;;;;;;6.87;6.03;;;;;15.10;98136.00;;;;16683081;28;20198;-49
2022/12/23 10:09:38;;;;;;;9.00;8.10;;;;;14.80;98129.00;;;;16686707;28;20592;-49
2022/12/23 10:17:42;;;;;;;7.90;5.60;;;;;15.50;98119.00;;;;16697080;28;20284;-49
2022/12/23 10:25:50;;;;;;;8.10;6.77;;;;;15.30;98118.00;;;;16716478;28;20225;-48
2022/12/23 10:33:58;;;;;;;5.47;4.87;;;;;16.20;98093.00;;;;16711730;28;20221;-48
2022/12/23 10:42:08;;;;;;;6.30;5.13;;;;;16.10;98090.00;;;;16703862;28;20229;-49
2022/12/23 10:50:26;;;;;;;5.63;5.20;;;;;16.70;98082.00;;;;16712838;28;20694;-48
2022/12/23 10:58:31;;;;;;;2.73;2.40;;;;;16.20;98064.00;;;;16712116;28;20228;-49
2022/12/23 11:06:35;;;;;;;2.33;1.90;;;;;15.90;98060.00;;;;16711779;28;20234;-48
2022/12/23 11:14:41;;;;;;;2.40;2.20;;;;;15.90;98053.00;;;;16691865;28;20351;-49
2022/12/23 11:22:51;;;;;;;6.93;5.30;;;;;15.60;98046.00;;;;16708511;28;20625;-49
2022/12/23 11:30:57;;;;;;;3.00;2.80;;;;;15.70;98030.00;;;;16701627;28;20198;-49
2022/12/23 11:39:04;;;;;;;4.07;3.30;;;;;15.70;98018.00;;;;16709453;28;20220;-48
2022/12/23 11:47:29;;;;;;;3.40;2.90;;;;;15.70;97996.00;;;;16701976;28;20222;-49
2022/12/23 11:55:32;;;;;;;3.30;2.50;;;;;16.00;98000.00;;;;16695370;28;20222;-49
2022/12/23 12:03:43;;;;;;;2.63;2.40;;;;;16.40;97989.00;;;;16699263;28;20233;-49
2022/12/23 12:11:48;;;;;;;4.03;3.10;;;;;16.00;97954.00;;;;16709469;28;20198;-50
2022/12/23 12:19:59;;;;;;;6.13;3.07;;;;;16.60;97931.00;;;;16707641;28;20563;-48
2022/12/23 12:28:04;;;;;;;3.20;2.57;;;;;16.20;97922.00;;;;16688611;28;20229;-49
2022/12/23 12:36:14;;;;;;;3.50;1.77;;;;;16.30;97918.00;;;;16666567;28;20305;-48
2022/12/23 12:44:26;;;;;;;4.17;3.77;;;;;16.40;97915.00;;;;16661276;28;20226;-49
2022/12/23 12:52:34;;;;;;;2.20;2.00;;;;;16.30;97904.00;;;;16661332;28;20225;-49
2022/12/23 13:00:46;;;;;;;2.83;2.10;;;;;16.20;97894.00;;;;16700800;28;20751;-48
2022/12/23 13:08:58;;;;;;;2.90;1.77;;;;;16.30;97882.00;;;;16693779;28;21041;-49
2022/12/23 13:17:06;;;;;;;2.27;2.00;;;;;16.30;97872.00;;;;16695762;28;20297;-48
2022/12/23 13:25:16;;;;;;;3.20;2.27;;;;;16.30;97861.00;;;;16702957;28;20225;-49
2022/12/23 13:33:23;;;;;;;2.57;1.97;;;;;16.30;97855.00;;;;16684946;28;20240;-49
2022/12/23 13:41:31;;;;;;;1.77;1.67;;;;;16.50;97855.00;;;;16674922;28;20217;-49
2022/12/23 13:49:52;;;;;;;4.10;2.50;;;;;16.50;97853.00;;;;16688666;28;20221;-49
2022/12/23 13:57:58;;;;;;;3.00;2.30;;;;;16.60;97860.00;;;;16691091;28;20225;-48
2022/12/23 14:06:19;;;;;;;2.33;1.77;;;;;16.50;97840.00;;;;16695232;28;20221;-48
2022/12/23 14:14:25;;;;;;;2.07;1.50;;;;;16.40;97842.00;;;;16701775;28;20221;-49
2022/12/23 14:22:49;;;;;;;4.10;1.80;;;;;16.50;97843.00;;;;16684890;28;20304;-49
2022/12/23 14:30:53;;;;;;;1.13;1.03;;;;;16.40;97841.00;;;;16695888;28;20605;-49
2022/12/23 14:39:28;;;;;;;1.70;1.60;;;;;16.40;97830.00;;;;16692078;28;21003;-48
2022/12/23 14:47:36;;;;;;;3.33;1.47;;;;;16.40;97831.00;;;;16656055;28;20681;-48
2022/12/23 14:55:44;;;;;;;2.43;1.40;;;;;16.30;97831.00;;;;16677911;28;20221;-47
2022/12/23 15:03:50;;;;;;;1.50;1.40;;;;;16.50;97831.00;;;;16703642;28;20291;-48
2022/12/23 15:11:53;;;;;;;2.37;1.70;;;;;16.50;97858.00;;;;16707125;28;20213;-48
2022/12/23 15:20:11;;;;;;;1.80;1.43;;;;;16.70;97860.00;;;;16708111;28;20240;-48
2022/12/23 15:28:18;;;;;;;1.40;1.23;;;;;16.40;97860.00;;;;16707466;28;20216;-48
2022/12/23 15:36:30;;;;;;;1.20;1.10;;;;;16.50;97886.00;;;;16706772;28;20222;-48
2022/12/23 15:44:37;;;;;;;1.70;1.27;;;;;16.50;97894.00;;;;16707941;28;20238;-50
2022/12/23 15:52:43;;;;;;;1.47;1.20;;;;;16.60;97883.00;;;;16702832;28;20287;-48
2022/12/23 16:00:52;;;;;;;1.00;0.93;;;;;16.50;97879.00;;;;16702743;28;20206;-48
2022/12/23 16:09:01;;;;;;;2.40;1.20;;;;;16.50;97865.00;;;;16688709;28;20217;-48
2022/12/23 16:17:15;;;;;;;1.20;1.10;;;;;16.70;97862.00;;;;16707202;28;20218;-48
2022/12/23 16:25:23;;;;;;;1.73;0.80;;;;;16.60;97875.00;;;;16696830;28;20623;-48
2022/12/23 16:33:34;;;;;;;3.13;1.30;;;;;16.60;97884.00;;;;16706690;28;20218;-48
2022/12/23 16:41:38;;;;;;;1.97;1.50;;;;;16.60;97879.00;;;;16706186;28;20616;-48
2022/12/23 16:49:40;;;;;;;1.23;1.13;;;;;16.80;97892.00;;;;16689220;28;20359;-48
2022/12/23 16:57:44;;;;;;;1.67;1.57;;;;;16.70;97884.00;;;;16677006;28;20225;-47
2022/12/23 17:05:47;;;;;;;2.43;1.30;;;;;16.70;97878.00;;;;16660204;28;20980;-47
2022/12/23 17:13:51;;;;;;;1.57;1.47;;;;;16.60;97875.00;;;;16663305;28;20556;-47
2022/12/23 17:21:58;;;;;;;1.17;0.90;;;;;16.50;97892.00;;;;16677237;28;20200;-48
2022/12/23 17:30:01;;;;;;;1.90;1.37;;;;;16.40;97886.00;;;;16679848;28;20221;-48
2022/12/23 17:38:08;;;;;;;1.80;1.23;;;;;16.40;97879.00;;;;16680792;28;20347;-48
2022/12/23 17:46:14;;;;;;;1.77;1.30;;;;;16.60;97876.00;;;;16689465;28;20225;-48
2022/12/23 17:54:21;;;;;;;1.60;1.50;;;;;16.80;97895.00;;;;16684367;28;21625;-48
2022/12/23 18:02:29;;;;;;;1.40;1.30;;;;;17.00;97881.00;;;;16665759;28;20218;-48
2022/12/23 18:10:36;;;;;;;3.43;3.23;;;;;16.80;97874.00;;;;16665013;28;20232;-48
2022/12/23 18:18:40;;;;;;;2.83;2.53;;;;;16.30;97899.00;;;;16656734;28;20209;-48
2022/12/23 18:26:42;;;;;;;3.30;1.03;;;;;15.50;97975.00;;;;16662651;28;20223;-47
2022/12/23 18:34:46;;;;;;;1.60;1.40;;;;;15.40;97969.00;;;;16689720;28;20225;-47
2022/12/23 18:42:49;;;;;;;1.20;1.10;;;;;15.40;97967.00;;;;16706328;28;20297;-47
2022/12/23 18:50:52;;;;;;;3.47;2.40;;;;;15.60;97974.00;;;;16688671;28;20221;-46
2022/12/23 18:58:55;;;;;;;2.70;2.47;;;;;15.90;97973.00;;;;16690359;28;20313;-46
2022/12/23 19:06:59;;;;;;;3.63;3.30;;;;;15.30;97997.00;;;;16676987;28;20302;-47
2022/12/23 19:15:01;;;;;;;4.50;3.60;;;;;15.60;97991.00;;;;16670017;28;20214;-46
2022/12/23 19:23:05;;;;;;;3.17;2.33;;;;;15.70;98004.00;;;;16669423;28;20264;-47
2022/12/23 19:31:08;;;;;;;14.67;13.17;;;;;16.20;98021.00;;;;16667749;28;20232;-47
2022/12/23 19:39:14;;;;;;;4.40;4.00;;;;;15.90;98036.00;;;;16678122;28;20225;-47
2022/12/23 19:47:17;;;;;;;9.50;7.40;;;;;16.30;98028.00;;;;16677800;28;21443;-47
2022/12/23 19:55:21;;;;;;;7.50;6.80;;;;;15.40;98056.00;;;;16677513;28;20293;-46
2022/12/23 20:03:23;;;;;;;4.40;3.87;;;;;15.10;98060.00;;;;16709962;28;20572;-46
2022/12/23 20:11:29;;;;;;;12.20;10.93;;;;;15.60;98071.00;;;;16675823;28;20220;-47
2022/12/23 20:19:31;;;;;;;18.43;16.63;;;;;15.20;98091.00;;;;16678818;28;20296;-46
2022/12/23 20:27:37;;;;;;;6.57;6.00;;;;;15.60;98085.00;;;;16690755;28;20313;-46
2022/12/23 20:35:40;;;;;;;13.80;11.80;;;;;15.20;98094.00;;;;16707215;28;20599;-47
2022/12/23 20:43:43;;;;;;;15.87;13.20;;;;;14.60;98151.00;;;;16701546;28;20232;-47
2022/12/23 20:51:46;;;;;;;5.10;1.60;;;;;14.80;98169.00;;;;16714924;28;20204;-46
2022/12/23 20:59:50;;;;;;;1.40;1.30;;;;;15.30;98170.00;;;;16709382;28;20198;-47
2022/12/23 21:07:52;;;;;;;1.60;1.20;;;;;15.30;98185.00;;;;16685469;28;20243;-47
2022/12/23 21:16:00;;;;;;;3.17;2.87;;;;;15.30;98190.00;;;;16681983;28;20217;-47
2022/12/23 21:24:04;;;;;;;6.13;2.37;;;;;14.90;98210.00;;;;16698484;28;20269;-47
2022/12/23 21:32:07;;;;;;;3.10;2.37;;;;;15.10;98199.00;;;;16706560;28;20258;-47
2022/12/23 21:40:11;;;;;;;8.03;4.80;;;;;15.30;98187.00;;;;16711718;28;20335;-47
2022/12/23 21:48:15;;;;;;;4.43;3.33;;;;;14.60;98218.00;;;;16672378;28;20241;-47
2022/12/23 21:56:19;;;;;;;5.33;3.60;;;;;14.80;98243.00;;;;16667353;28;20300;-47
2022/12/23 22:04:23;;;;;;;3.77;1.70;;;;;14.90;98245.00;;;;16700154;28;20221;-47
2022/12/23 22:12:26;;;;;;;3.47;2.77;;;;;15.10;98262.00;;;;16716370;28;20214;-48
2022/12/23 22:20:30;;;;;;;6.00;2.50;;;;;14.90;98259.00;;;;16716663;28;20183;-48
2022/12/23 22:28:33;;;;;;;2.80;2.00;;;;;15.20;98260.00;;;;16685788;28;20228;-47
2022/12/23 22:36:37;;;;;;;2.47;1.50;;;;;15.10;98259.00;;;;16716895;28;20226;-47
2022/12/23 22:44:40;;;;;;;24.17;9.60;;;;;15.00;98282.00;;;;16717519;28;20229;-47
2022/12/23 22:52:43;;;;;;;4.30;3.23;;;;;14.30;98287.00;;;;16712326;28;20224;-47
2022/12/23 23:00:46;;;;;;;7.20;2.63;;;;;14.50;98273.00;;;;16719494;28;20198;-47
2022/12/23 23:08:50;;;;;;;3.00;2.63;;;;;14.30;98272.00;;;;16718356;28;20225;-48
2022/12/23 23:16:52;;;;;;;7.90;4.20;;;;;13.30;98293.00;;;;16706388;28;20222;-48
2022/12/23 23:24:56;;;;;;;3.40;3.10;;;;;14.00;98301.00;;;;16704768;28;20618;-47
2022/12/23 23:32:58;;;;;;;19.60;13.50;;;;;14.00;98312.00;;;;16700676;28;20620;-48
2022/12/23 23:41:02;;;;;;;4.97;2.40;;;;;14.00;98303.00;;;;16651316;28;20194;-47
2022/12/23 23:49:05;;;;;;;5.47;2.50;;;;;13.00;98334.00;;;;16639307;28;20232;-47
2022/12/23 23:57:08;;;;;;;3.23;2.00;;;;;12.60;98340.00;;;;16645219;28;20224;-47
